createdAt,value
2023-03-17T00:00:36.682Z,99026.25
2023-03-17T00:01:38.986Z,99027.84
2023-03-17T00:02:43.686Z,99020.72
2023-03-17T00:03:49.887Z,99030.09
2023-03-17T00:04:52.439Z,99023.97
2023-03-17T00:05:56.572Z,99024.56
2023-03-17T00:06:59.701Z,99023.88
2023-03-17T00:08:20.568Z,99029.66
2023-03-17T00:09:22.966Z,99027.19
2023-03-17T00:10:26.800Z,99025.34
2023-03-17T00:11:29.762Z,99024.34
2023-03-17T00:12:32.072Z,99029.53
2023-03-17T00:13:35.264Z,99022.69
2023-03-17T00:14:37.938Z,99019.13
2023-03-17T00:15:40.189Z,99028.72
2023-03-17T00:16:44.998Z,99023.41
2023-03-17T00:17:48.700Z,99019.78
2023-03-17T00:18:53.309Z,99032.69
2023-03-17T00:19:55.510Z,99020.72
2023-03-17T00:20:58.232Z,99019.66
2023-03-17T00:22:01.319Z,99023.06
2023-03-17T00:23:06.738Z,99029.97
2023-03-17T00:24:14.701Z,99044.81
2023-03-17T00:25:22.134Z,99036.31
2023-03-17T00:26:24.796Z,99041.53
2023-03-17T00:27:28.190Z,99031.13
2023-03-17T00:28:30.528Z,99035.50
2023-03-17T00:29:32.759Z,99036.31
2023-03-17T00:30:35.064Z,99035.50
2023-03-17T00:31:39.019Z,99035.28
2023-03-17T00:32:42.175Z,99035.19
2023-03-17T00:33:46.537Z,99035.19
2023-03-17T00:34:48.783Z,99040.09
2023-03-17T00:35:52.423Z,99029.81
2023-03-17T00:36:54.640Z,99032.63
2023-03-17T00:37:58.289Z,99030.13
2023-03-17T00:39:00.612Z,99028.50
2023-03-17T00:40:02.907Z,99023.28
2023-03-17T00:41:05.127Z,99019.06
2023-03-17T00:42:07.641Z,99024.34
2023-03-17T00:43:09.864Z,99019.19
2023-03-17T00:44:12.440Z,99020.72
2023-03-17T00:45:15.745Z,99026.44
2023-03-17T00:46:28.479Z,99022.19
2023-03-17T00:47:32.647Z,99028.16
2023-03-17T00:48:35.420Z,99015.31
2023-03-17T00:49:37.716Z,99031.25
2023-03-17T00:50:39.891Z,99025.84
2023-03-17T00:51:42.401Z,99025.81
2023-03-17T00:52:45.480Z,99022.31
2023-03-17T00:53:48.233Z,99021.44
2023-03-17T00:54:50.504Z,99018.94
2023-03-17T00:55:52.674Z,99030.25
2023-03-17T00:56:54.977Z,99016.97
2023-03-17T00:57:57.993Z,99013.56
2023-03-17T00:59:00.452Z,99015.44
2023-03-17T01:00:04.515Z,99017.28
2023-03-17T01:01:07.113Z,99008.38
2023-03-17T01:02:11.955Z,99018.50
2023-03-17T01:03:15.407Z,99018.66
2023-03-17T01:04:18.080Z,99019.56
2023-03-17T01:05:23.715Z,99020.13
2023-03-17T01:06:25.982Z,99031.88
2023-03-17T01:07:28.419Z,99026.66
2023-03-17T01:08:31.383Z,99022.84
2023-03-17T01:09:36.540Z,99026.03
2023-03-17T01:10:39.370Z,99026.09
2023-03-17T01:11:42.126Z,99026.81
2023-03-17T01:12:46.599Z,99020.72
2023-03-17T01:13:48.832Z,99018.28
2023-03-17T01:14:50.989Z,99014.84
2023-03-17T01:15:54.007Z,99020.59
2023-03-17T01:16:56.280Z,99017.19
2023-03-17T01:18:00.171Z,99012.19
2023-03-17T01:19:02.533Z,99009.13
2023-03-17T01:20:07.030Z,99012.69
2023-03-17T01:21:09.806Z,99000.69
2023-03-17T01:22:12.174Z,98998.13
2023-03-17T01:23:14.667Z,99004.97
2023-03-17T01:24:18.077Z,99000.41
2023-03-17T01:25:21.333Z,98999.13
2023-03-17T01:26:25.983Z,99005.19
2023-03-17T01:27:28.998Z,98997.81
2023-03-17T01:28:31.222Z,99006.09
2023-03-17T01:29:35.137Z,99000.44
2023-03-17T01:30:39.285Z,99002.56
2023-03-17T01:31:42.044Z,98992.00
2023-03-17T01:32:45.387Z,98994.06
2023-03-17T01:33:47.657Z,98983.88
2023-03-17T01:34:49.848Z,98989.97
2023-03-17T01:35:52.523Z,98977.94
2023-03-17T01:36:54.814Z,98984.91
2023-03-17T01:37:59.100Z,98990.19
2023-03-17T01:39:03.265Z,98987.59
2023-03-17T01:40:09.459Z,98986.88
2023-03-17T01:41:12.520Z,98984.31
2023-03-17T01:42:15.001Z,98976.47
2023-03-17T01:43:19.836Z,98974.09
2023-03-17T01:44:23.228Z,98978.13
2023-03-17T01:46:03.222Z,98967.59
2023-03-17T01:47:05.548Z,98973.63
2023-03-17T01:48:09.003Z,98973.72
2023-03-17T01:49:19.821Z,98984.13
2023-03-17T01:50:22.096Z,98972.88
2023-03-17T01:51:51.250Z,98977.16
2023-03-17T01:52:53.664Z,98974.72
2023-03-17T01:53:56.718Z,98968.00
2023-03-17T01:55:02.838Z,98973.47
2023-03-17T01:56:06.454Z,98963.84
2023-03-17T01:57:11.585Z,98967.34
2023-03-17T01:58:16.035Z,98951.88
2023-03-17T01:59:23.720Z,98957.09
2023-03-17T02:00:26.572Z,98951.31
2023-03-17T02:01:37.356Z,98947.84
2023-03-17T02:02:45.440Z,98936.63
2023-03-17T02:03:48.426Z,98944.34
2023-03-17T02:04:52.345Z,98941.75
2023-03-17T02:05:54.577Z,98950.31
2023-03-17T02:06:58.807Z,98941.66
2023-03-17T02:08:01.397Z,98950.22
2023-03-17T02:09:04.334Z,98956.34
2023-03-17T02:10:08.760Z,98950.31
2023-03-17T02:11:13.353Z,98946.66
2023-03-17T02:12:15.685Z,98952.66
2023-03-17T02:13:18.413Z,98950.09
2023-03-17T02:14:20.602Z,98948.44
2023-03-17T02:15:23.902Z,98945.88
2023-03-17T02:16:27.721Z,98947.47
2023-03-17T02:17:29.938Z,98946.66
2023-03-17T02:18:32.263Z,98952.94
2023-03-17T02:19:35.172Z,98946.97
2023-03-17T02:20:37.483Z,98951.22
2023-03-17T02:21:45.986Z,98946.00
2023-03-17T02:22:54.810Z,98951.28
2023-03-17T02:23:59.087Z,98944.31
2023-03-17T02:25:01.426Z,98954.53
2023-03-17T02:26:05.111Z,98952.44
2023-03-17T02:27:17.512Z,98959.06
2023-03-17T02:28:25.891Z,98952.34
2023-03-17T02:29:28.587Z,98952.53
2023-03-17T02:30:33.095Z,98956.03
2023-03-17T02:31:35.674Z,98964.69
2023-03-17T02:32:38.909Z,98956.66
2023-03-17T02:33:42.511Z,98962.00
2023-03-17T02:34:46.430Z,98954.22
2023-03-17T02:35:48.789Z,98960.06
2023-03-17T02:36:51.649Z,98955.00
2023-03-17T02:37:54.160Z,98954.03
2023-03-17T02:38:57.467Z,98953.44
2023-03-17T02:40:01.630Z,98957.09
2023-03-17T02:41:03.977Z,98950.91
2023-03-17T02:42:07.622Z,98953.00
2023-03-17T02:43:10.549Z,98960.16
2023-03-17T02:44:12.716Z,98947.19
2023-03-17T02:45:15.186Z,98944.50
2023-03-17T02:46:17.563Z,98944.56
2023-03-17T02:47:19.961Z,98951.63
2023-03-17T02:48:22.905Z,98950.44
2023-03-17T02:49:26.018Z,98942.72
2023-03-17T02:50:29.294Z,98944.56
2023-03-17T02:51:32.010Z,98946.00
2023-03-17T02:52:34.339Z,98947.63
2023-03-17T02:53:36.653Z,98938.84
2023-03-17T02:54:39.193Z,98944.22
2023-03-17T02:55:41.975Z,98946.06
2023-03-17T02:56:44.376Z,98946.22
2023-03-17T02:57:46.623Z,98934.88
2023-03-17T02:58:48.841Z,98940.19
2023-03-17T02:59:51.784Z,98942.06
2023-03-17T03:02:12.252Z,98945.81
2023-03-17T03:03:14.597Z,98937.22
2023-03-17T03:04:17.374Z,98939.03
2023-03-17T03:05:19.867Z,98941.66
2023-03-17T03:06:23.949Z,98941.66
2023-03-17T03:07:26.303Z,98931.41
2023-03-17T03:08:28.634Z,98928.84
2023-03-17T03:09:30.937Z,98936.63
2023-03-17T03:10:33.103Z,98942.72
2023-03-17T03:11:35.938Z,98942.72
2023-03-17T03:12:38.179Z,98939.31
2023-03-17T03:13:40.549Z,98936.56
2023-03-17T03:14:42.707Z,98932.28
2023-03-17T03:15:44.933Z,98946.19
2023-03-17T03:16:47.693Z,98927.22
2023-03-17T03:17:50.882Z,98935.75
2023-03-17T03:18:53.102Z,98930.59
2023-03-17T03:19:55.378Z,98936.97
2023-03-17T03:20:57.684Z,98934.09
2023-03-17T03:21:59.965Z,98930.88
2023-03-17T03:23:02.428Z,98927.34
2023-03-17T03:24:05.625Z,98921.50
2023-03-17T03:25:08.703Z,98926.84
2023-03-17T03:26:10.993Z,98927.66
2023-03-17T03:27:13.203Z,98920.06
2023-03-17T03:28:15.459Z,98922.44
2023-03-17T03:29:17.714Z,98925.97
2023-03-17T03:30:20.390Z,98919.97
2023-03-17T03:31:23.007Z,98923.41
2023-03-17T03:32:25.375Z,98921.50
2023-03-17T03:33:28.365Z,98924.81
2023-03-17T03:34:30.572Z,98925.75
2023-03-17T03:35:34.368Z,98925.00
2023-03-17T03:36:37.016Z,98926.13
2023-03-17T03:37:39.322Z,98925.34
2023-03-17T03:38:42.569Z,98923.66
2023-03-17T03:39:45.771Z,98926.38
2023-03-17T03:40:48.113Z,98914.38
2023-03-17T03:41:50.474Z,98920.28
2023-03-17T03:42:53.049Z,98917.81
2023-03-17T03:43:55.488Z,98921.50
2023-03-17T03:44:57.704Z,98918.94
2023-03-17T03:46:00.118Z,98921.50
2023-03-17T03:47:02.725Z,98921.63
2023-03-17T03:48:05.249Z,98925.97
2023-03-17T03:49:07.545Z,98926.00
2023-03-17T03:50:10.793Z,98925.78
2023-03-17T03:51:13.031Z,98920.72
2023-03-17T03:52:15.706Z,98925.84
2023-03-17T03:53:17.988Z,98924.22
2023-03-17T03:54:20.179Z,98926.75
2023-03-17T03:55:22.319Z,98925.97
2023-03-17T03:56:24.506Z,98921.56
2023-03-17T03:57:26.932Z,98923.22
2023-03-17T03:58:29.194Z,98921.56
2023-03-17T03:59:31.625Z,98925.28
2023-03-17T04:00:33.784Z,98921.66
2023-03-17T04:01:36.526Z,98930.47
2023-03-17T04:02:38.842Z,98928.75
2023-03-17T04:03:41.213Z,98934.13
2023-03-17T04:04:43.844Z,98924.66
2023-03-17T04:05:46.095Z,98926.31
2023-03-17T04:06:48.522Z,98925.34
2023-03-17T04:07:50.809Z,98922.88
2023-03-17T04:08:53.114Z,98923.88
2023-03-17T04:09:55.353Z,98921.25
2023-03-17T04:10:58.050Z,98929.44
2023-03-17T04:12:00.284Z,98928.53
2023-03-17T04:13:02.864Z,98928.44
2023-03-17T04:14:06.368Z,98923.94
2023-03-17T04:15:10.577Z,98915.34
2023-03-17T04:16:12.879Z,98923.28
2023-03-17T04:17:15.253Z,98915.50
2023-03-17T04:18:17.504Z,98924.41
2023-03-17T04:19:21.481Z,98923.56
2023-03-17T04:20:23.630Z,98921.25
2023-03-17T04:21:26.404Z,98920.50
2023-03-17T04:22:28.652Z,98921.38
2023-03-17T04:23:31.495Z,98919.53
2023-03-17T04:24:34.920Z,98922.84
2023-03-17T04:25:38.000Z,98917.00
2023-03-17T04:26:41.214Z,98919.22
2023-03-17T04:27:43.689Z,98914.13
2023-03-17T04:28:45.904Z,98911.59
2023-03-17T04:29:48.956Z,98919.38
2023-03-17T04:30:51.598Z,98920.03
2023-03-17T04:31:54.002Z,98919.19
2023-03-17T04:32:56.342Z,98917.41
2023-03-17T04:33:58.546Z,98912.09
2023-03-17T04:35:00.874Z,98917.56
2023-03-17T04:36:04.011Z,98915.06
2023-03-17T04:37:07.203Z,98903.25
2023-03-17T04:38:13.049Z,98910.41
2023-03-17T04:39:15.964Z,98920.84
2023-03-17T04:40:19.312Z,98918.16
2023-03-17T04:41:21.910Z,98912.41
2023-03-17T04:42:24.415Z,98913.25
2023-03-17T04:43:27.111Z,98908.25
2023-03-17T04:44:29.444Z,98916.38
2023-03-17T04:45:31.658Z,98910.53
2023-03-17T04:46:35.005Z,98913.63
2023-03-17T04:47:37.411Z,98906.44
2023-03-17T04:48:39.831Z,98903.72
2023-03-17T04:49:42.007Z,98904.38
2023-03-17T04:50:45.530Z,98900.84
2023-03-17T04:51:47.742Z,98909.34
2023-03-17T04:52:50.039Z,98903.22
2023-03-17T04:53:52.548Z,98904.97
2023-03-17T04:54:54.995Z,98905.00
2023-03-17T04:55:57.307Z,98901.59
2023-03-17T04:56:59.559Z,98901.66
2023-03-17T04:58:01.836Z,98913.81
2023-03-17T04:59:04.386Z,98915.59
2023-03-17T05:00:09.677Z,98911.09
2023-03-17T05:01:12.051Z,98902.06
2023-03-17T05:02:14.504Z,98909.56
2023-03-17T05:03:26.353Z,98913.03
2023-03-17T05:04:32.008Z,98918.44
2023-03-17T05:05:34.993Z,98913.31
2023-03-17T05:06:37.327Z,98918.44
2023-03-17T05:07:40.056Z,98920.16
2023-03-17T05:08:45.819Z,98923.50
2023-03-17T05:09:48.165Z,98924.72
2023-03-17T05:10:51.194Z,98924.44
2023-03-17T05:11:53.539Z,98928.56
2023-03-17T05:12:56.055Z,98926.59
2023-03-17T05:13:58.314Z,98937.88
2023-03-17T05:15:00.681Z,98933.50
2023-03-17T05:16:03.224Z,98931.81
2023-03-17T05:17:05.444Z,98935.28
2023-03-17T05:18:08.233Z,98937.88
2023-03-17T05:19:10.553Z,98939.72
2023-03-17T05:20:13.130Z,98949.03
2023-03-17T05:21:15.571Z,98942.09
2023-03-17T05:22:17.859Z,98934.56
2023-03-17T05:23:20.606Z,98940.78
2023-03-17T05:24:22.994Z,98947.88
2023-03-17T05:25:25.305Z,98931.59
2023-03-17T05:26:27.574Z,98942.72
2023-03-17T05:27:31.377Z,98933.88
2023-03-17T05:28:33.593Z,98938.91
2023-03-17T05:29:35.841Z,98933.66
2023-03-17T05:30:38.309Z,98934.50
2023-03-17T05:31:40.593Z,98933.47
2023-03-17T05:32:42.874Z,98940.28
2023-03-17T05:33:46.349Z,98935.13
2023-03-17T05:34:48.712Z,98939.47
2023-03-17T05:35:51.138Z,98936.66
2023-03-17T05:36:53.569Z,98933.31
2023-03-17T05:37:56.239Z,98941.19
2023-03-17T05:38:58.427Z,98934.47
2023-03-17T05:40:01.086Z,98929.59
2023-03-17T05:41:04.130Z,98938.56
2023-03-17T05:42:06.538Z,98930.06
2023-03-17T05:43:09.376Z,98930.75
2023-03-17T05:44:11.638Z,98927.09
2023-03-17T05:45:13.907Z,98927.75
2023-03-17T05:46:17.142Z,98925.00
2023-03-17T05:47:20.915Z,98919.47
2023-03-17T05:48:23.195Z,98926.94
2023-03-17T05:49:28.496Z,98931.88
2023-03-17T05:50:30.946Z,98941.13
2023-03-17T05:51:35.187Z,98946.44
2023-03-17T05:52:38.766Z,98945.44
2023-03-17T05:53:41.631Z,98942.41
2023-03-17T05:54:44.795Z,98951.56
2023-03-17T05:55:47.733Z,98949.75
2023-03-17T05:56:49.963Z,98951.59
2023-03-17T05:57:52.234Z,98948.94
2023-03-17T05:58:54.628Z,98934.81
2023-03-17T05:59:57.425Z,98944.22
2023-03-17T06:00:59.700Z,98944.59
2023-03-17T06:02:02.070Z,98944.34
2023-03-17T06:03:05.077Z,98950.34
2023-03-17T06:04:07.794Z,98948.31
2023-03-17T06:05:10.097Z,98952.19
2023-03-17T06:06:12.433Z,98948.03
2023-03-17T06:07:16.106Z,98960.56
2023-03-17T06:08:18.525Z,98947.28
2023-03-17T06:09:20.830Z,98952.31
2023-03-17T06:10:23.917Z,98951.69
2023-03-17T06:11:26.612Z,98962.56
2023-03-17T06:12:29.124Z,98951.44
2023-03-17T06:13:31.375Z,98954.94
2023-03-17T06:14:33.759Z,98963.16
2023-03-17T06:15:38.570Z,98963.16
2023-03-17T06:16:40.860Z,98960.47
2023-03-17T06:17:43.365Z,98966.66
2023-03-17T06:18:46.039Z,98963.75
2023-03-17T06:19:49.492Z,98962.53
2023-03-17T06:20:51.834Z,98962.91
2023-03-17T06:21:54.327Z,98959.31
2023-03-17T06:23:04.478Z,98953.84
2023-03-17T06:24:07.727Z,98952.41
2023-03-17T06:25:11.039Z,98955.97
2023-03-17T06:26:13.324Z,98953.75
2023-03-17T06:27:15.601Z,98955.50
2023-03-17T06:28:18.494Z,98951.16
2023-03-17T06:29:21.483Z,98950.44
2023-03-17T06:30:24.027Z,98952.66
2023-03-17T06:31:26.486Z,98946.56
2023-03-17T06:32:30.698Z,98952.19
2023-03-17T06:33:33.010Z,98957.00
2023-03-17T06:34:35.338Z,98951.47
2023-03-17T06:35:38.269Z,98947.84
2023-03-17T06:36:41.414Z,98954.72
2023-03-17T06:37:43.739Z,98952.25
2023-03-17T06:38:46.113Z,98950.94
2023-03-17T06:39:48.475Z,98945.19
2023-03-17T06:40:50.722Z,98957.28
2023-03-17T06:41:53.632Z,98963.06
2023-03-17T06:42:56.464Z,98961.66
2023-03-17T06:43:58.685Z,98963.19
2023-03-17T06:45:01.006Z,98961.28
2023-03-17T06:46:03.430Z,98963.63
2023-03-17T06:47:06.177Z,98962.31
2023-03-17T06:48:08.373Z,98957.41
2023-03-17T06:49:13.388Z,98963.38
2023-03-17T06:50:15.881Z,98957.34
2023-03-17T06:51:18.113Z,98965.72
2023-03-17T06:52:20.482Z,98958.44
2023-03-17T06:53:22.731Z,98963.97
2023-03-17T06:54:25.489Z,98964.03
2023-03-17T06:55:27.816Z,98962.50
2023-03-17T06:56:30.855Z,98966.81
2023-03-17T06:57:33.447Z,98963.19
2023-03-17T06:58:35.670Z,98968.09
2023-03-17T06:59:38.009Z,98967.34
2023-03-17T07:00:40.427Z,98964.69
2023-03-17T07:01:42.715Z,98965.19
2023-03-17T07:02:44.901Z,98963.69
2023-03-17T07:03:47.114Z,98964.56
2023-03-17T07:04:49.422Z,98969.31
2023-03-17T07:05:52.432Z,98961.50
2023-03-17T07:06:54.644Z,98973.78
2023-03-17T07:07:56.898Z,98973.59
2023-03-17T07:09:01.957Z,98984.06
2023-03-17T07:10:05.693Z,98982.63
2023-03-17T07:11:07.968Z,98978.94
2023-03-17T07:12:10.280Z,98982.25
2023-03-17T07:13:12.667Z,98982.91
2023-03-17T07:14:14.999Z,98978.19
2023-03-17T07:15:18.802Z,98969.06
2023-03-17T07:16:21.327Z,98973.91
2023-03-17T07:17:23.856Z,98975.41
2023-03-17T07:18:26.949Z,98977.84
2023-03-17T07:19:30.180Z,98971.66
2023-03-17T07:20:32.942Z,98974.41
2023-03-17T07:21:35.174Z,98968.28
2023-03-17T07:22:37.560Z,98970.31
2023-03-17T07:23:40.619Z,98967.06
2023-03-17T07:24:43.259Z,98964.59
2023-03-17T07:25:47.119Z,98956.72
2023-03-17T07:26:49.509Z,98949.72
2023-03-17T07:27:52.030Z,98959.50
2023-03-17T07:28:54.373Z,98958.44
2023-03-17T07:29:57.095Z,98958.88
2023-03-17T07:31:00.532Z,98948.09
2023-03-17T07:32:05.270Z,98948.78
2023-03-17T07:33:07.530Z,98955.06
2023-03-17T07:34:10.462Z,98964.47
2023-03-17T07:35:12.772Z,98965.22
2023-03-17T07:36:15.737Z,98954.50
2023-03-17T07:37:17.971Z,98955.22
2023-03-17T07:38:21.261Z,98958.94
2023-03-17T07:39:23.560Z,98949.34
2023-03-17T07:40:26.650Z,98958.03
2023-03-17T07:41:28.852Z,98954.63
2023-03-17T07:42:31.305Z,98947.34
2023-03-17T07:43:33.553Z,98949.28
2023-03-17T07:44:37.510Z,98948.53
2023-03-17T07:45:40.121Z,98946.13
2023-03-17T07:46:42.556Z,98955.72
2023-03-17T07:47:46.384Z,98952.69
2023-03-17T07:48:48.986Z,98949.28
2023-03-17T07:49:51.205Z,98948.59
2023-03-17T07:50:53.539Z,98953.44
2023-03-17T07:51:55.948Z,98944.03
2023-03-17T07:52:58.497Z,98948.59
2023-03-17T07:54:04.018Z,98959.59
2023-03-17T07:55:16.458Z,98955.28
2023-03-17T07:56:18.798Z,98955.16
2023-03-17T07:57:22.183Z,98956.75
2023-03-17T07:58:24.599Z,98952.88
2023-03-17T07:59:27.290Z,98945.31
2023-03-17T08:00:29.985Z,98941.09
2023-03-17T08:01:32.896Z,98948.59
2023-03-17T08:02:36.288Z,98954.63
2023-03-17T08:03:41.387Z,98948.03
2023-03-17T08:04:44.648Z,98950.78
2023-03-17T08:05:51.623Z,98946.41
2023-03-17T08:06:54.512Z,98945.34
2023-03-17T08:07:56.963Z,98938.16
2023-03-17T08:08:59.275Z,98937.34
2023-03-17T08:10:01.487Z,98948.63
2023-03-17T08:11:05.446Z,98941.84
2023-03-17T08:12:09.217Z,98944.63
2023-03-17T08:13:11.631Z,98953.59
2023-03-17T08:14:14.555Z,98945.34
2023-03-17T08:15:17.185Z,98942.31
2023-03-17T08:16:19.429Z,98943.34
2023-03-17T08:17:26.827Z,98942.78
2023-03-17T08:18:29.079Z,98931.91
2023-03-17T08:19:31.317Z,98932.75
2023-03-17T08:20:34.933Z,98941.56
2023-03-17T08:21:37.483Z,98937.38
2023-03-17T08:22:40.591Z,98942.44
2023-03-17T08:23:43.228Z,98941.84
2023-03-17T08:24:45.519Z,98939.69
2023-03-17T08:25:48.689Z,98948.97
2023-03-17T08:26:50.878Z,98936.13
2023-03-17T08:27:54.091Z,98945.28
2023-03-17T08:28:58.043Z,98944.66
2023-03-17T08:30:00.378Z,98936.16
2023-03-17T08:31:15.950Z,98943.88
2023-03-17T08:32:18.196Z,98929.66
2023-03-17T08:33:21.486Z,98933.81
2023-03-17T08:34:24.214Z,98940.81
2023-03-17T08:35:27.119Z,98929.44
2023-03-17T08:36:29.907Z,98935.47
2023-03-17T08:37:32.382Z,98931.53
2023-03-17T08:38:35.605Z,98929.38
2023-03-17T08:39:38.013Z,98931.19
2023-03-17T08:40:40.983Z,98928.19
2023-03-17T08:41:43.635Z,98935.31
2023-03-17T08:42:47.901Z,98937.53
2023-03-17T08:43:51.575Z,98941.19
2023-03-17T08:44:53.862Z,98945.44
2023-03-17T08:46:02.625Z,98936.69
2023-03-17T08:47:04.961Z,98937.88
2023-03-17T08:48:07.347Z,98937.88
2023-03-17T08:49:10.614Z,98939.75
2023-03-17T08:50:18.267Z,98938.91
2023-03-17T08:51:24.482Z,98940.41
2023-03-17T08:52:28.040Z,98942.91
2023-03-17T08:53:30.403Z,98933.78
2023-03-17T08:54:34.645Z,98939.78
2023-03-17T08:55:37.449Z,98944.16
2023-03-17T08:56:40.505Z,98941.41
2023-03-17T08:57:44.559Z,98940.09
2023-03-17T08:58:47.632Z,98942.59
2023-03-17T08:59:50.761Z,98941.09
2023-03-17T09:00:53.910Z,98938.25
2023-03-17T09:01:56.820Z,98939.44
2023-03-17T09:02:59.157Z,98932.50
2023-03-17T09:04:02.596Z,98929.44
2023-03-17T09:05:07.077Z,98920.50
2023-03-17T09:06:12.300Z,98927.78
2023-03-17T09:07:15.103Z,98928.03
2023-03-17T09:08:17.406Z,98922.78
2023-03-17T09:09:20.498Z,98920.91
2023-03-17T09:10:23.550Z,98917.91
2023-03-17T09:11:31.513Z,98916.13
2023-03-17T09:12:34.597Z,98910.84
2023-03-17T09:13:39.175Z,98913.81
2023-03-17T09:14:44.179Z,98911.66
2023-03-17T09:15:47.276Z,98910.81
2023-03-17T09:16:49.591Z,98911.88
2023-03-17T09:17:51.845Z,98921.56
2023-03-17T09:18:54.986Z,98918.72
2023-03-17T09:19:57.374Z,98921.47
2023-03-17T09:21:00.100Z,98908.25
2023-03-17T09:22:03.150Z,98908.81
2023-03-17T09:23:09.993Z,98917.31
2023-03-17T09:24:12.616Z,98910.41
2023-03-17T09:25:17.890Z,98914.78
2023-03-17T09:26:20.481Z,98909.06
2023-03-17T09:27:22.761Z,98901.94
2023-03-17T09:28:25.047Z,98896.94
2023-03-17T09:29:27.790Z,98894.09
2023-03-17T09:30:30.662Z,98901.66
2023-03-17T09:31:36.066Z,98902.22
2023-03-17T09:32:38.375Z,98905.22
2023-03-17T09:33:41.721Z,98894.59
2023-03-17T09:34:44.078Z,98895.91
2023-03-17T09:35:46.585Z,98894.69
2023-03-17T09:36:48.932Z,98893.88
2023-03-17T09:37:51.519Z,98886.97
2023-03-17T09:38:56.767Z,98885.31
2023-03-17T09:40:00.218Z,98890.00
2023-03-17T09:41:05.295Z,98895.63
2023-03-17T09:42:41.499Z,98884.97
2023-03-17T09:44:12.146Z,98892.47
2023-03-17T09:45:22.570Z,98893.75
2023-03-17T09:46:33.689Z,98894.63
2023-03-17T09:47:59.931Z,98888.09
2023-03-17T09:49:09.168Z,98890.50
2023-03-17T09:50:19.575Z,98896.53
2023-03-17T09:51:22.287Z,98886.44
2023-03-17T09:52:34.472Z,98884.50
2023-03-17T09:53:42.892Z,98885.94
2023-03-17T09:54:48.244Z,98884.94
2023-03-17T09:55:55.385Z,98886.28
2023-03-17T09:57:09.654Z,98881.84
2023-03-17T09:58:12.146Z,98888.72
2023-03-17T09:59:30.492Z,98882.69
2023-03-17T10:00:33.532Z,98883.16
2023-03-17T10:01:38.199Z,98890.03
2023-03-17T10:02:41.802Z,98883.88
2023-03-17T10:03:44.980Z,98882.25
2023-03-17T10:04:48.693Z,98887.13
2023-03-17T10:05:51.241Z,98875.19
2023-03-17T10:07:02.213Z,98882.69
2023-03-17T10:08:29.673Z,98880.31
2023-03-17T10:09:40.217Z,98882.44
2023-03-17T10:10:46.877Z,98878.88
2023-03-17T10:11:59.257Z,98871.22
2023-03-17T10:13:27.547Z,98867.91
2023-03-17T10:14:41.952Z,98870.88
2023-03-17T10:15:55.903Z,98870.47
2023-03-17T10:17:20.259Z,98868.03
2023-03-17T10:18:28.103Z,98858.44
2023-03-17T10:19:45.237Z,98857.38
2023-03-17T10:20:54.927Z,98859.38
2023-03-17T10:22:02.901Z,98864.97
2023-03-17T10:23:07.622Z,98869.59
2023-03-17T10:24:11.764Z,98875.69
2023-03-17T10:25:22.375Z,98863.91
2023-03-17T10:26:33.437Z,98868.47
2023-03-17T10:27:37.836Z,98861.69
2023-03-17T10:28:40.395Z,98859.94
2023-03-17T10:29:43.012Z,98863.47
2023-03-17T10:30:45.753Z,98865.50
2023-03-17T10:31:49.100Z,98863.28
2023-03-17T10:32:53.934Z,98863.31
2023-03-17T10:34:04.265Z,98852.91
2023-03-17T10:35:07.629Z,98858.94
2023-03-17T10:36:11.728Z,98858.50
2023-03-17T10:37:23.528Z,98855.00
2023-03-17T10:38:26.835Z,98847.72
2023-03-17T10:39:32.710Z,98860.00
2023-03-17T10:40:36.138Z,98854.38
2023-03-17T10:41:53.619Z,98852.06
2023-03-17T10:43:05.761Z,98849.13
2023-03-17T10:44:11.339Z,98846.16
2023-03-17T10:45:38.414Z,98848.47
2023-03-17T10:46:41.578Z,98846.13
2023-03-17T10:47:47.907Z,98843.25
2023-03-17T10:48:56.545Z,98851.25
2023-03-17T10:50:22.862Z,98849.50
2023-03-17T10:51:31.804Z,98850.63
2023-03-17T10:52:42.172Z,98857.31
2023-03-17T10:53:44.705Z,98852.91
2023-03-17T10:54:53.150Z,98842.03
2023-03-17T10:56:06.751Z,98837.28
2023-03-17T10:57:13.966Z,98840.66
2023-03-17T10:58:19.487Z,98832.31
2023-03-17T11:00:39.595Z,98839.34
2023-03-17T11:02:07.577Z,98831.72
2023-03-17T11:03:23.076Z,98823.63
2023-03-17T11:04:42.522Z,98825.38
2023-03-17T11:06:02.213Z,98828.44
2023-03-17T11:07:16.503Z,98825.78
2023-03-17T11:08:20.271Z,98826.41
2023-03-17T11:09:23.276Z,98831.06
2023-03-17T11:10:27.934Z,98836.97
2023-03-17T11:11:36.193Z,98836.53
2023-03-17T11:12:40.784Z,98825.94
2023-03-17T11:13:42.954Z,98834.78
2023-03-17T11:14:45.205Z,98827.38
2023-03-17T11:15:57.699Z,98824.84
2023-03-17T11:17:18.915Z,98823.56
2023-03-17T11:18:28.647Z,98827.09
2023-03-17T11:20:06.135Z,98829.31
2023-03-17T11:21:17.474Z,98825.53
2023-03-17T11:22:29.972Z,98823.75
2023-03-17T11:23:34.713Z,98817.78
2023-03-17T11:25:05.248Z,98824.06
2023-03-17T11:26:26.252Z,98822.19
2023-03-17T11:27:32.598Z,98812.66
2023-03-17T11:28:39.667Z,98814.59
2023-03-17T11:30:17.368Z,98803.84
2023-03-17T11:31:30.976Z,98806.69
2023-03-17T11:32:43.500Z,98804.66
2023-03-17T11:33:55.023Z,98797.03
2023-03-17T11:35:27.139Z,98800.81
2023-03-17T11:36:44.611Z,98803.28
2023-03-17T11:37:52.580Z,98808.94
2023-03-17T11:39:10.317Z,98799.34
2023-03-17T11:40:18.433Z,98804.41
2023-03-17T11:41:41.697Z,98790.78
2023-03-17T11:43:29.141Z,98795.81
2023-03-17T11:44:34.508Z,98794.22
2023-03-17T11:46:01.500Z,98799.94
2023-03-17T11:47:31.780Z,98804.31
2023-03-17T11:48:44.631Z,98798.38
2023-03-17T11:50:01.800Z,98793.66
2023-03-17T11:51:20.274Z,98784.56
2023-03-17T11:52:38.668Z,98794.63
2023-03-17T11:53:56.927Z,98791.16
2023-03-17T11:55:16.131Z,98790.66
2023-03-17T11:56:35.071Z,98790.25
2023-03-17T11:57:48.359Z,98790.75
2023-03-17T11:59:01.701Z,98787.22
2023-03-17T12:00:07.545Z,98776.84
2023-03-17T12:01:27.056Z,98783.06
2023-03-17T12:02:49.605Z,98787.25
2023-03-17T12:04:03.949Z,98791.72
2023-03-17T12:05:13.294Z,98790.25
2023-03-17T12:06:29.422Z,98790.00
2023-03-17T12:07:39.001Z,98786.91
2023-03-17T12:09:03.589Z,98787.25
2023-03-17T12:10:05.745Z,98774.78
2023-03-17T12:11:15.159Z,98771.63
2023-03-17T12:12:26.044Z,98778.72
2023-03-17T12:13:35.459Z,98765.00
2023-03-17T12:14:48.752Z,98769.44
2023-03-17T12:16:26.670Z,98768.28
2023-03-17T12:17:44.551Z,98767.84
2023-03-17T12:19:05.736Z,98772.41
2023-03-17T12:20:25.888Z,98762.16
2023-03-17T12:21:38.732Z,98768.91
2023-03-17T12:23:12.049Z,98759.09
2023-03-17T12:24:49.562Z,98757.25
2023-03-17T12:25:59.753Z,98756.03
2023-03-17T12:27:13.598Z,98759.41
2023-03-17T12:28:25.827Z,98759.78
2023-03-17T12:29:47.361Z,98760.50
2023-03-17T12:30:54.266Z,98753.41
2023-03-17T12:32:05.430Z,98754.81
2023-03-17T12:33:25.758Z,98757.09
2023-03-17T12:34:57.171Z,98750.09
2023-03-17T12:36:01.447Z,98752.28
2023-03-17T12:37:03.804Z,98748.66
2023-03-17T12:38:27.135Z,98747.56
2023-03-17T12:39:37.300Z,98754.81
2023-03-17T12:41:09.762Z,98751.31
2023-03-17T12:42:20.665Z,98752.75
2023-03-17T12:43:36.355Z,98747.81
2023-03-17T12:44:39.093Z,98753.44
2023-03-17T12:46:02.962Z,98758.00
2023-03-17T12:47:17.242Z,98753.50
2023-03-17T12:48:37.494Z,98755.72
2023-03-17T12:49:58.164Z,98750.94
2023-03-17T12:51:44.758Z,98736.78
2023-03-17T12:53:24.526Z,98727.56